Ismay, Montana
Current Conditions -  °F | °C
As of 1:51 PM on Saturday 22 Nov 2014 (Local Time) from KBHK Reporting Station
Overcast Overcast  
Wind Chill: 39°   Ceiling: 11000
Heat Index: 43°   Visibility: 10mi
Dew Point: 38°   Wind: 7mph
Humidity: 82%   Direction: 220°SW
Pressure: 29.36"   Gusts: NA
Location:  46.5°N, 104.79°W
Report Text: KBHK 222051Z AUTO 22006KT 10SM OVC110 06/03 A2936 RMK AO2 RAE09 SLP953 P0000 60003 T00610033 56015
Loading
Personal Weather Stations






























Interactive Weather Map New forecast layout! Learn more

10-Day Weather Forecast

Advertisements
Track Severe Weather on mobile